Time;durP1;ratioP1;P1;durP2;ratioP2;P2;SDS_P1;SDS_P2;PMS_P1;PMS_P2;Temp;Humidity;BMP_temperature;BMP_pressure;BME280_temperature;BME280_humidity;BME280_pressure;Samples;Min_cycle;Max_cycle;Signal;HPM_P1;HPM_P2
2022/06/10 00:00:25;;;;;;;6.90;2.90;;;;;;;18.52;100.00;-24332.81;5050393;28;20645;-61
2022/06/10 00:02:51;;;;;;;6.00;3.60;;;;;;;18.72;100.00;-24338.13;5051068;28;20238;-60
2022/06/10 00:05:20;;;;;;;6.85;3.42;;;;;;;18.28;100.00;-24326.13;5050740;28;20183;-61
2022/06/10 00:07:46;;;;;;;4.38;3.30;;;;;;;18.76;100.00;-24339.38;5050570;28;20328;-60
2022/06/10 00:10:14;;;;;;;4.35;2.85;;;;;;;18.63;100.00;-24335.63;5051068;28;20170;-60
2022/06/10 00:12:40;;;;;;;4.72;2.97;;;;;;;18.43;100.00;-24330.19;5051022;28;20191;-62
2022/06/10 00:15:08;;;;;;;5.28;3.33;;;;;;;18.77;100.00;-24339.66;5050882;28;20564;-61
2022/06/10 00:17:34;;;;;;;4.75;3.30;;;;;;;18.44;100.00;-24330.47;5050844;28;20233;-60
2022/06/10 00:19:59;;;;;;;4.82;2.90;;;;;;;18.48;100.00;-24331.56;5050856;28;20183;-61
2022/06/10 00:22:26;;;;;;;6.13;3.25;;;;;;;18.92;100.00;-24343.69;5050377;28;20230;-62
2022/06/10 00:24:51;;;;;;;5.78;3.20;;;;;;;18.93;100.00;-24343.97;5051057;28;20704;-60
2022/06/10 00:27:20;;;;;;;4.68;2.90;;;;;;;18.86;100.00;-24342.16;5050468;28;20204;-59
2022/06/10 00:29:46;;;;;;;4.85;3.25;;;;;;;18.55;100.00;-24333.53;5031635;28;20645;-61
2022/06/10 00:32:11;;;;;;;8.45;3.30;;;;;;;18.79;100.00;-24340.06;5050878;28;20166;-61
2022/06/10 00:34:37;;;;;;;3.60;2.80;;;;;;;18.44;100.00;-24330.59;5050253;28;20190;-61
2022/06/10 00:37:06;;;;;;;5.53;3.05;;;;;;;18.44;100.00;-24330.59;5050766;28;20565;-61
2022/06/10 00:39:33;;;;;;;6.22;3.05;;;;;;;18.53;100.00;-24333.13;5050086;28;22389;-59
2022/06/10 00:41:59;;;;;;;7.43;3.65;;;;;;;18.44;100.00;-24330.59;5050679;28;20230;-60
2022/06/10 00:44:38;;;;;;;6.90;3.13;;;;;;;18.75;100.00;-24338.97;5049999;28;20217;-62
2022/06/10 00:47:21;;;;;;;4.97;2.80;;;;;;;18.47;100.00;-24331.44;5050325;28;20225;-60
2022/06/10 00:49:56;;;;;;;8.95;3.03;;;;;;;18.47;100.00;-24331.28;5049750;28;20177;-59
2022/06/10 00:52:34;;;;;;;5.63;3.40;;;;;;;18.71;100.00;-24337.84;5049817;28;20210;-61
2022/06/10 00:55:03;;;;;;;5.60;3.47;;;;;;;18.44;100.00;-24330.59;5049398;28;20175;-62
2022/06/10 00:57:38;;;;;;;6.85;3.67;;;;;;;18.90;100.00;-24343.28;5049471;28;20190;-60
2022/06/10 01:00:10;;;;;;;7.68;4.75;;;;;;;18.35;100.00;-24328.09;5050596;28;20265;-61
2022/06/10 01:02:36;;;;;;;9.68;5.28;;;;;;;18.58;100.00;-24334.38;5049304;28;20226;-59
2022/06/10 01:05:13;;;;;;;9.95;5.30;;;;;;;18.24;100.00;-24325.03;5050108;28;20258;-62
2022/06/10 01:07:44;;;;;;;10.10;6.40;;;;;;;18.50;100.00;-24332.28;5050029;28;20182;-60
2022/06/10 01:10:14;;;;;;;11.27;6.57;;;;;;;18.32;100.00;-24327.25;5046594;28;20175;-60
2022/06/10 01:13:07;;;;;;;13.80;6.50;;;;;;;18.51;100.00;-24332.56;5049348;28;20265;-60
2022/06/10 01:15:44;;;;;;;11.85;6.88;;;;;;;18.22;100.00;-24324.47;5049240;28;20198;-61
2022/06/10 01:18:18;;;;;;;10.93;6.70;;;;;;;18.60;100.00;-24334.91;5046560;28;20186;-61
2022/06/10 01:21:05;;;;;;;13.15;7.25;;;;;;;18.78;100.00;-24339.78;5049864;28;20293;-60
2022/06/10 01:23:48;;;;;;;12.00;7.05;;;;;;;18.85;100.00;-24341.75;5049603;28;20357;-59
2022/06/10 01:29:36;;;;;;;11.43;6.43;;;;;;;18.62;100.00;-24335.47;4987053;28;20626;-59
2022/06/10 01:32:06;;;;;;;9.88;6.28;;;;;;;18.95;100.00;-24344.53;5049417;28;20186;-60
2022/06/10 01:35:02;;;;;;;10.60;6.50;;;;;;;18.73;100.00;-24338.41;5049397;28;20810;-60
2022/06/10 01:37:44;;;;;;;11.82;6.63;;;;;;;18.82;100.00;-24341.03;5048357;28;20182;-61
2022/06/10 01:40:38;;;;;;;12.85;6.70;;;;;;;19.18;100.00;-24350.94;5046787;28;20218;-60
2022/06/10 01:43:17;;;;;;;10.77;6.75;;;;;;;19.21;100.00;-24351.75;5049471;28;20178;-60
2022/06/10 01:46:00;;;;;;;12.70;7.15;;;;;;;19.35;100.00;-24355.66;5049989;28;20247;-60
2022/06/10 01:48:41;;;;;;;11.15;6.30;;;;;;;19.35;100.00;-24355.66;5047937;28;20236;-59
2022/06/10 01:51:27;;;;;;;8.40;4.63;;;;;;;19.26;100.00;-24353.16;5049241;28;20575;-61
2022/06/10 01:54:03;;;;;;;9.10;5.13;;;;;;;19.30;100.00;-24354.28;5047259;28;20550;-60
2022/06/10 01:56:34;;;;;;;8.32;5.07;;;;;;;18.89;100.00;-24343.00;5049147;28;20178;-61
2022/06/10 01:59:04;;;;;;;9.07;4.95;;;;;;;19.08;100.00;-24348.00;5049764;28;20181;-61
2022/06/10 02:01:33;;;;;;;9.43;5.53;;;;;;;19.14;100.00;-24349.69;5049298;28;20232;-61
2022/06/10 02:04:13;;;;;;;9.35;5.20;;;;;;;18.56;100.00;-24333.66;5049449;28;20693;-62
2022/06/10 02:06:48;;;;;;;7.85;5.20;;;;;;;18.87;100.00;-24342.31;5049517;28;20182;-60
2022/06/10 02:09:19;;;;;;;10.77;6.00;;;;;;;18.76;100.00;-24339.38;5046091;28;20257;-62
2022/06/10 02:11:51;;;;;;;11.13;6.95;;;;;;;18.62;100.00;-24335.34;5048740;28;20281;-61
2022/06/10 02:14:24;;;;;;;13.20;7.85;;;;;;;18.79;100.00;-24340.06;5049081;28;20187;-61
2022/06/10 02:16:50;;;;;;;14.13;7.30;;;;;;;18.52;100.00;-24332.81;5048970;28;20175;-59
2022/06/10 02:19:27;;;;;;;14.43;7.80;;;;;;;18.90;100.00;-24343.13;5049491;28;20240;-61
2022/06/10 02:21:59;;;;;;;17.13;8.00;;;;;;;18.69;100.00;-24337.28;5049252;28;20646;-60
2022/06/10 02:24:34;;;;;;;13.73;9.05;;;;;;;18.96;100.00;-24344.81;5052256;28;20247;-60
2022/06/10 02:27:06;;;;;;;19.83;9.43;;;;;;;18.50;100.00;-24332.13;5051775;28;20240;-61
2022/06/10 02:29:47;;;;;;;19.88;9.43;;;;;;;18.69;100.00;-24337.44;5052443;28;20183;-59
2022/06/10 02:32:12;;;;;;;16.10;9.43;;;;;;;18.72;100.00;-24338.13;5049565;28;20214;-60
2022/06/10 02:34:38;;;;;;;14.63;8.40;;;;;;;18.60;100.00;-24334.91;5052310;28;20665;-60
2022/06/10 02:37:24;;;;;;;16.90;9.93;;;;;;;18.72;100.00;-24338.25;5052939;28;20179;-60
2022/06/10 02:39:58;;;;;;;16.95;9.35;;;;;;;18.39;100.00;-24329.22;5052724;28;20191;-61
2022/06/10 02:42:37;;;;;;;19.35;9.35;;;;;;;18.47;100.00;-24331.44;5050285;28;20203;-60
2022/06/10 02:45:27;;;;;;;15.82;8.73;;;;;;;18.89;100.00;-24342.84;5050831;28;20569;-62
2022/06/10 02:48:10;;;;;;;18.67;9.02;;;;;;;18.64;100.00;-24335.91;5052236;28;20183;-62
2022/06/10 02:50:38;;;;;;;14.77;8.70;;;;;;;18.27;100.00;-24325.88;5051950;28;20183;-61
2022/06/10 02:53:06;;;;;;;14.23;8.18;;;;;;;18.28;100.00;-24326.00;5052246;28;20285;-58
2022/06/10 02:55:31;;;;;;;16.20;8.73;;;;;;;18.72;100.00;-24338.25;5051162;28;20290;-61
2022/06/10 03:04:09;;;;;;;15.75;8.55;;;;;;;18.80;100.00;-24340.50;5052027;28;20284;-60
2022/06/10 03:06:40;;;;;;;15.35;8.00;;;;;;;18.79;100.00;-24340.22;5051352;28;20174;-60
2022/06/10 03:09:25;;;;;;;15.25;9.15;;;;;;;18.78;100.00;-24339.94;5051788;28;20175;-61
2022/06/10 03:12:27;;;;;;;14.43;8.55;;;;;;;18.78;100.00;-24339.78;5039040;28;20186;-60
2022/06/10 03:15:30;;;;;;;15.00;8.75;;;;;;;18.80;100.00;-24340.50;5052246;28;20221;-59
2022/06/10 03:18:19;;;;;;;17.45;9.65;;;;;;;18.80;100.00;-24340.34;5050133;28;20174;-62
2022/06/10 03:20:57;;;;;;;16.40;8.98;;;;;;;18.95;100.00;-24344.53;5047368;28;20631;-61
2022/06/10 03:23:46;;;;;;;18.55;10.40;;;;;;;19.32;100.00;-24354.81;5045597;28;20181;-60
2022/06/10 03:26:26;;;;;;;17.95;9.98;;;;;;;19.94;100.00;-24371.66;5045638;28;20179;-61
2022/06/10 03:29:07;;;;;;;17.67;10.23;;;;;;;20.40;100.00;-24384.44;5046172;28;20182;-61
2022/06/10 03:31:40;;;;;;;18.00;9.43;;;;;;;20.48;100.00;-24386.66;5045406;28;20243;-62
2022/06/10 03:34:14;;;;;;;17.75;9.30;;;;;;;20.58;100.00;-24389.44;5045043;28;20175;-60
2022/06/10 03:36:40;;;;;;;15.13;9.40;;;;;;;20.51;100.00;-24387.50;5046126;28;20175;-61
2022/06/10 03:39:07;;;;;;;13.52;8.05;;;;;;;20.43;100.00;-24385.13;5046586;28;20811;-63
2022/06/10 03:41:37;;;;;;;17.10;10.00;;;;;;;20.35;100.00;-24383.03;5045684;28;20211;-59
2022/06/10 03:44:11;;;;;;;13.90;8.85;;;;;;;20.09;100.00;-24375.81;5045663;28;20365;-60
2022/06/10 03:46:37;;;;;;;17.95;9.43;;;;;;;20.27;100.00;-24380.97;5045117;28;20178;-62
2022/06/10 03:49:12;;;;;;;15.45;8.73;;;;;;;20.24;100.00;-24380.13;5045362;28;20193;-61
2022/06/10 03:51:38;;;;;;;14.77;8.35;;;;;;;20.19;100.00;-24378.75;5046422;28;20185;-62
2022/06/10 03:54:04;;;;;;;13.43;8.50;;;;;;;20.20;100.00;-24378.88;5045288;28;20582;-60
2022/06/10 03:56:31;;;;;;;12.80;7.53;;;;;;;19.91;100.00;-24370.97;5045378;28;22014;-60
2022/06/10 03:58:57;;;;;;;15.07;8.15;;;;;;;20.18;100.00;-24378.47;5044956;28;20191;-60
2022/06/10 04:01:22;;;;;;;12.93;8.23;;;;;;;20.34;100.00;-24382.63;5044723;28;20574;-62
2022/06/10 04:03:48;;;;;;;11.50;7.25;;;;;;;20.03;100.00;-24374.28;5044947;28;20226;-60
2022/06/10 04:06:17;;;;;;;12.50;7.45;;;;;;;20.49;100.00;-24386.94;5043893;28;21067;-62
2022/06/10 04:08:42;;;;;;;11.52;7.50;;;;;;;20.70;100.00;-24392.75;5042869;28;20174;-58
2022/06/10 04:11:08;;;;;;;11.68;7.00;;;;;;;20.17;100.00;-24378.19;5042897;28;20189;-60
2022/06/10 04:13:34;;;;;;;11.10;7.13;;;;;;;20.44;100.00;-24385.53;5045707;28;20286;-60
2022/06/10 04:15:59;;;;;;;13.48;7.75;;;;;;;20.03;100.00;-24374.16;5043942;28;20178;-61
2022/06/10 04:18:25;;;;;;;11.77;7.22;;;;;;;20.33;100.00;-24382.34;5046147;28;20214;-61
2022/06/10 04:20:51;;;;;;;13.52;8.07;;;;;;;20.10;100.00;-24376.25;5048829;28;20175;-59
2022/06/10 04:23:16;;;;;;;13.55;7.60;;;;;;;20.32;100.00;-24382.22;5050708;28;20280;-59
2022/06/10 04:25:44;;;;;;;11.25;7.25;;;;;;;20.07;100.00;-24375.41;5049364;28;20197;-61
2022/06/10 04:28:10;;;;;;;12.57;7.28;;;;;;;20.38;100.00;-24383.75;5045770;28;20665;-61
2022/06/10 04:30:48;;;;;;;10.82;6.53;;;;;;;20.36;100.00;-24383.19;5049682;28;20190;-61
2022/06/10 04:33:14;;;;;;;11.80;6.95;;;;;;;19.97;100.00;-24372.63;5046465;28;20704;-61
2022/06/10 04:35:42;;;;;;;11.80;7.05;;;;;;;20.23;100.00;-24379.72;5050548;28;20247;-62
2022/06/10 04:38:08;;;;;;;11.20;6.88;;;;;;;20.31;100.00;-24381.78;5050398;28;20186;-61
2022/06/10 04:40:36;;;;;;;13.48;7.50;;;;;;;20.43;100.00;-24385.13;5049622;28;20214;-60
2022/06/10 04:43:04;;;;;;;14.13;6.68;;;;;;;20.33;100.00;-24382.34;5049990;28;20206;-60
2022/06/10 04:45:46;;;;;;;12.45;7.43;;;;;;;19.29;100.00;-24353.84;5049195;28;20186;-62
2022/06/10 04:48:12;;;;;;;12.20;7.10;;;;;;;20.15;100.00;-24377.63;5046141;28;20202;-61
2022/06/10 04:50:40;;;;;;;14.75;7.88;;;;;;;20.49;100.00;-24386.78;5049773;28;20186;-60
2022/06/10 04:53:05;;;;;;;12.35;7.82;;;;;;;20.12;100.00;-24376.78;5050170;28;20650;-61
2022/06/10 04:55:31;;;;;;;13.13;7.97;;;;;;;20.38;100.00;-24383.88;5049262;28;21949;-61
2022/06/10 04:57:57;;;;;;;13.27;8.02;;;;;;;20.37;100.00;-24383.59;5050176;28;20217;-61
2022/06/10 05:00:34;;;;;;;13.50;7.95;;;;;;;20.45;100.00;-24385.69;5049241;28;20186;-61
2022/06/10 05:03:02;;;;;;;10.98;7.05;;;;;;;20.35;100.00;-24382.91;5047565;28;20233;-61
2022/06/10 05:05:29;;;;;;;12.10;7.70;;;;;;;20.16;100.00;-24377.75;5048316;28;20179;-61
2022/06/10 05:07:54;;;;;;;12.38;7.85;;;;;;;19.87;100.00;-24369.72;5049628;28;20320;-60
2022/06/10 05:10:20;;;;;;;13.75;7.90;;;;;;;20.25;100.00;-24380.25;5049091;28;20178;-60
2022/06/10 05:12:45;;;;;;;12.85;7.18;;;;;;;20.41;100.00;-24384.72;5049470;28;20175;-59
2022/06/10 05:15:15;;;;;;;13.48;7.82;;;;;;;20.60;100.00;-24389.97;5049441;28;20227;-60
2022/06/10 05:17:42;;;;;;;12.65;7.43;;;;;;;20.81;100.00;-24395.66;5049319;28;20647;-59
2022/06/10 05:20:09;;;;;;;13.98;7.95;;;;;;;20.87;100.00;-24397.34;5049366;28;20163;-59
2022/06/10 05:22:35;;;;;;;14.40;8.18;;;;;;;21.52;100.00;-24415.09;5047968;28;20206;-61
2022/06/10 05:25:00;;;;;;;14.85;7.93;;;;;;;21.84;100.00;-24423.94;5048721;28;20694;-61
2022/06/10 05:27:26;;;;;;;12.73;7.45;;;;;;;21.83;100.00;-24423.53;5048830;28;20177;-60
2022/06/10 05:29:51;;;;;;;13.02;7.65;;;;;;;21.93;100.00;-24426.44;5049218;28;20659;-58
2022/06/10 05:32:17;;;;;;;12.23;7.90;;;;;;;22.41;100.00;-24439.59;5049165;28;20220;-60
2022/06/10 05:34:46;;;;;;;12.60;7.00;;;;;;;22.18;100.00;-24433.09;5049851;28;20179;-60
2022/06/10 05:37:21;;;;;;;12.38;7.68;;;;;;;21.95;100.00;-24426.88;5045666;28;20261;-61
2022/06/10 05:39:47;;;;;;;11.82;7.45;;;;;;;22.19;100.00;-24433.38;5047871;28;20213;-61
2022/06/10 05:42:13;;;;;;;12.23;7.68;;;;;;;22.11;100.00;-24431.16;5049206;28;20693;-61
2022/06/10 05:44:41;;;;;;;12.13;7.53;;;;;;;21.83;100.00;-24423.53;5048256;28;20182;-60
2022/06/10 05:47:10;;;;;;;11.65;6.50;;;;;;;21.82;100.00;-24423.41;5047953;28;20187;-59
2022/06/10 05:49:39;;;;;;;11.93;7.10;;;;;;;22.24;100.00;-24434.75;5047606;28;20194;-60
2022/06/10 05:52:06;;;;;;;10.63;6.78;;;;;;;22.10;100.00;-24430.88;5048369;28;20571;-61
2022/06/10 05:54:33;;;;;;;11.88;7.07;;;;;;;22.38;100.00;-24438.63;5048005;28;20225;-60
2022/06/10 05:56:59;;;;;;;10.48;6.90;;;;;;;22.53;100.00;-24442.78;5047796;28;20232;-62
2022/06/10 05:59:24;;;;;;;10.57;6.53;;;;;;;22.64;100.00;-24445.81;5033812;28;20194;-60
2022/06/10 06:01:50;;;;;;;12.60;7.10;;;;;;;22.22;100.00;-24434.19;5052488;28;20191;-60
2022/06/10 06:04:15;;;;;;;9.55;6.53;;;;;;;21.78;100.00;-24422.28;5051970;28;20214;-60
2022/06/10 06:06:41;;;;;;;9.52;6.40;;;;;;;22.07;100.00;-24430.03;5051971;28;20170;-59
2022/06/10 06:09:08;;;;;;;11.70;7.22;;;;;;;21.87;100.00;-24424.78;5052264;28;20227;-61
2022/06/10 06:11:34;;;;;;;13.80;7.43;;;;;;;22.18;100.00;-24433.22;5051672;28;20503;-60
2022/06/10 06:13:59;;;;;;;10.13;6.45;;;;;;;21.70;100.00;-24419.94;5052488;28;20644;-61
2022/06/10 06:16:25;;;;;;;11.30;6.85;;;;;;;20.69;100.00;-24392.34;5051755;28;20597;-61
2022/06/10 06:18:52;;;;;;;11.77;7.18;;;;;;;21.97;100.00;-24427.56;5052104;28;20263;-61
2022/06/10 06:21:18;;;;;;;12.82;7.45;;;;;;;22.06;100.00;-24429.78;5051772;28;20210;-61
2022/06/10 06:23:44;;;;;;;13.70;7.43;;;;;;;22.38;100.00;-24438.63;5034112;28;20248;-61
2022/06/10 06:26:15;;;;;;;13.18;7.57;;;;;;;22.53;100.00;-24442.78;5051892;28;20275;-61
2022/06/10 06:28:42;;;;;;;11.02;6.88;;;;;;;22.67;100.00;-24446.50;5051767;28;20595;-60
2022/06/10 06:31:11;;;;;;;12.77;7.53;;;;;;;22.19;100.00;-24433.50;5052022;28;20246;-61
2022/06/10 06:33:37;;;;;;;11.88;6.82;;;;;;;22.91;100.00;-24453.16;5051289;28;20617;-61
2022/06/10 06:36:04;;;;;;;10.45;6.63;;;;;;;22.76;100.00;-24449.00;5051903;28;20198;-61
2022/06/10 06:38:30;;;;;;;8.90;6.05;;;;;;;23.24;100.00;-24462.13;5052409;28;20186;-59
2022/06/10 06:40:56;;;;;;;12.32;6.47;;;;;;;23.25;100.00;-24462.56;5051788;28;20186;-61
2022/06/10 06:43:21;;;;;;;11.23;6.68;;;;;;;23.05;100.00;-24457.03;5051966;28;20186;-60
2022/06/10 06:45:47;;;;;;;12.23;6.80;;;;;;;23.08;100.00;-24457.84;5051892;28;20280;-59
2022/06/10 06:48:13;;;;;;;10.68;7.00;;;;;;;23.42;100.00;-24467.09;5052320;28;20183;-60
2022/06/10 06:50:46;;;;;;;11.85;6.53;;;;;;;24.00;100.00;-24482.84;5051551;28;20174;-60
2022/06/10 06:53:12;;;;;;;10.45;6.43;;;;;;;24.21;100.00;-24488.63;5047514;28;20214;-61
2022/06/10 06:55:41;;;;;;;10.68;7.25;;;;;;;24.35;100.00;-24492.50;5050557;28;20206;-60
2022/06/10 06:58:10;;;;;;;13.65;6.72;;;;;;;24.54;100.00;-24497.75;5051063;28;20174;-60
2022/06/10 07:00:36;;;;;;;12.43;7.38;;;;;;;24.37;100.00;-24492.91;5050715;28;20287;-60
2022/06/10 07:03:02;;;;;;;10.73;6.78;;;;;;;24.41;100.00;-24494.16;5051356;28;20223;-59
2022/06/10 07:05:28;;;;;;;11.85;7.15;;;;;;;24.53;100.00;-24497.47;5050455;28;20178;-58
2022/06/10 07:07:53;;;;;;;13.35;7.05;;;;;;;24.88;100.00;-24506.81;5052134;28;20323;-60
2022/06/10 07:10:21;;;;;;;13.50;7.50;;;;;;;24.30;100.00;-24491.13;5051591;28;20191;-61
2022/06/10 07:12:47;;;;;;;13.63;7.95;;;;;;;24.06;100.00;-24484.50;5051234;28;20178;-59
2022/06/10 07:15:14;;;;;;;14.35;7.60;;;;;;;23.67;100.00;-24473.88;5051910;28;20186;-61
2022/06/10 07:17:39;;;;;;;12.98;7.65;;;;;;;23.51;100.00;-24469.59;5051684;28;20864;-59
2022/06/10 07:20:07;;;;;;;14.05;8.18;;;;;;;24.14;100.00;-24486.84;5051602;28;20175;-60
2022/06/10 07:22:32;;;;;;;13.32;8.63;;;;;;;24.31;100.00;-24491.25;5051614;28;20902;-59
2022/06/10 07:24:58;;;;;;;13.60;7.70;;;;;;;24.48;100.00;-24496.09;5052001;28;20201;-60
2022/06/10 07:27:24;;;;;;;12.77;7.55;;;;;;;25.23;100.00;-24516.47;5051007;28;20637;-60
2022/06/10 07:29:50;;;;;;;13.13;7.78;;;;;;;25.33;100.00;-24519.22;5051644;28;20543;-61
2022/06/10 07:32:17;;;;;;;13.93;7.90;;;;;;;25.16;100.00;-24514.53;5051845;28;20194;-60
2022/06/10 07:34:42;;;;;;;14.68;8.05;;;;;;;25.66;100.00;-24528.03;5051605;28;20171;-61
2022/06/10 07:37:08;;;;;;;12.55;8.07;;;;;;;25.47;100.00;-24523.06;5051803;28;20196;-60
2022/06/10 07:39:34;;;;;;;14.40;8.05;;;;;;;25.16;100.00;-24514.41;5051308;28;20194;-59
2022/06/10 07:42:00;;;;;;;11.77;7.40;;;;;;;25.49;100.00;-24523.47;5051446;28;20266;-61
2022/06/10 07:44:37;;;;;;;13.23;7.65;;;;;;;25.85;100.00;-24533.25;5051017;28;20583;-61
2022/06/10 07:47:12;;;;;;;14.27;8.30;;;;;;;25.64;100.00;-24527.47;5050689;28;20174;-61
2022/06/10 07:49:38;;;;;;;11.85;7.47;;;;;;;25.10;100.00;-24512.88;5049658;28;20884;-59
2022/06/10 07:52:05;;;;;;;13.40;7.78;;;;;;;25.34;100.00;-24519.34;5051280;28;20576;-59
2022/06/10 07:54:33;;;;;;;14.77;7.90;;;;;;;25.26;100.00;-24517.16;5050621;28;20264;-60
2022/06/10 07:56:59;;;;;;;15.65;8.57;;;;;;;25.60;100.00;-24526.50;5050356;28;20240;-60
2022/06/10 07:59:25;;;;;;;14.38;8.25;;;;;;;25.52;100.00;-24524.44;5049759;28;20171;-61
2022/06/10 08:01:51;;;;;;;13.93;8.90;;;;;;;24.85;100.00;-24506.13;5050377;28;20298;-59
2022/06/10 08:04:16;;;;;;;13.15;8.57;;;;;;;25.29;100.00;-24517.97;5050290;28;20309;-59
2022/06/10 08:06:46;;;;;;;16.13;9.82;;;;;;;25.50;100.00;-24523.75;5051252;28;20634;-60
2022/06/10 08:09:11;;;;;;;15.60;9.15;;;;;;;25.19;100.00;-24515.38;5047838;28;20182;-61
2022/06/10 08:11:38;;;;;;;13.32;8.15;;;;;;;25.53;100.00;-24524.72;5051139;28;20192;-60
2022/06/10 08:14:05;;;;;;;13.07;7.90;;;;;;;25.20;100.00;-24515.63;5050564;28;20565;-60
2022/06/10 08:16:31;;;;;;;13.48;8.27;;;;;;;24.93;100.00;-24508.22;5050368;28;20194;-60
2022/06/10 08:18:57;;;;;;;17.73;9.45;;;;;;;24.75;100.00;-24503.38;5032864;28;20261;-60
2022/06/10 08:24:06;;;;;;;14.88;8.82;;;;;;;24.26;100.00;-24490.03;5050262;28;20178;-60
2022/06/10 08:26:33;;;;;;;14.73;8.82;;;;;;;24.47;100.00;-24495.66;5050091;28;20183;-59
2022/06/10 08:29:00;;;;;;;15.85;8.10;;;;;;;24.44;100.00;-24494.97;5050311;28;20705;-59
2022/06/10 08:31:26;;;;;;;16.00;8.73;;;;;;;24.36;100.00;-24492.63;5049440;28;20184;-60
2022/06/10 08:33:52;;;;;;;15.15;8.88;;;;;;;24.46;100.00;-24495.41;5049550;28;20178;-61
2022/06/10 08:36:17;;;;;;;15.88;9.48;;;;;;;24.51;100.00;-24496.91;5050506;28;20267;-59
2022/06/10 08:38:43;;;;;;;15.57;9.68;;;;;;;24.70;100.00;-24502.00;5050938;28;20308;-60
2022/06/10 08:41:26;;;;;;;17.10;9.68;;;;;;;24.99;100.00;-24510.00;5050857;28;20183;-61
2022/06/10 08:44:10;;;;;;;16.05;9.30;;;;;;;25.31;100.00;-24518.53;5050659;28;20166;-60
2022/06/10 08:47:06;;;;;;;17.75;10.48;;;;;;;25.39;100.00;-24520.88;5050318;28;20196;-63
2022/06/10 08:49:57;;;;;;;18.17;10.13;;;;;;;25.87;100.00;-24533.81;5045868;28;20672;-60
2022/06/10 08:52:48;;;;;;;16.38;9.75;;;;;;;25.72;100.00;-24529.69;5044464;28;20190;-59
2022/06/10 08:56:01;;;;;;;19.13;10.95;;;;;;;25.83;100.00;-24532.69;5047063;28;20205;-60
2022/06/10 08:58:26;;;;;;;17.08;10.57;;;;;;;26.67;100.00;-24555.50;5039855;28;20656;-60
2022/06/10 09:00:56;;;;;;;18.30;10.23;;;;;;;26.53;100.00;-24551.66;5050337;28;20233;-61
2022/06/10 09:03:29;;;;;;;20.02;10.95;;;;;;;26.67;100.00;-24555.66;5049720;28;20276;-60
2022/06/10 09:05:58;;;;;;;15.18;9.98;;;;;;;26.84;100.00;-24560.16;5048317;28;20186;-60
2022/06/10 09:08:35;;;;;;;16.23;10.05;;;;;;;25.87;100.00;-24533.81;5049880;28;20186;-60
2022/06/10 09:11:04;;;;;;;18.10;10.00;;;;;;;25.39;100.00;-24520.88;5049308;28;20178;-61
2022/06/10 09:13:38;;;;;;;15.85;9.07;;;;;;;25.26;100.00;-24517.28;5049766;28;20264;-60
2022/06/10 09:16:26;;;;;;;18.30;9.73;;;;;;;24.96;100.00;-24509.19;5050154;28;20835;-60
2022/06/10 09:19:09;;;;;;;16.02;9.25;;;;;;;24.64;100.00;-24500.50;5049822;28;20667;-59
2022/06/10 09:21:57;;;;;;;16.88;9.50;;;;;;;24.75;100.00;-24503.38;5049460;28;20194;-59
2022/06/10 09:24:37;;;;;;;20.85;9.75;;;;;;;24.33;100.00;-24491.81;5047415;28;20237;-60
2022/06/10 09:27:20;;;;;;;14.95;8.68;;;;;;;23.89;100.00;-24479.81;5049414;28;20280;-59
2022/06/10 09:29:47;;;;;;;17.45;8.95;;;;;;;24.04;100.00;-24484.09;5048299;28;20665;-58
2022/06/10 09:32:24;;;;;;;15.57;8.68;;;;;;;24.20;100.00;-24488.38;5049446;28;20174;-60
2022/06/10 09:35:10;;;;;;;18.83;8.82;;;;;;;24.63;100.00;-24500.22;5053253;28;20668;-60
2022/06/10 09:38:13;;;;;;;15.98;8.15;;;;;;;24.43;100.00;-24494.69;5052595;28;20683;-60
2022/06/10 09:40:44;;;;;;;14.45;7.65;;;;;;;24.28;100.00;-24490.56;5053262;28;20189;-60
2022/06/10 09:43:36;;;;;;;14.95;8.35;;;;;;;24.29;100.00;-24490.84;5050037;28;20247;-61
2022/06/10 09:46:04;;;;;;;16.02;7.70;;;;;;;24.26;100.00;-24490.03;5053509;28;20187;-60
2022/06/10 09:48:40;;;;;;;17.35;8.82;;;;;;;24.54;100.00;-24497.59;5052838;28;20171;-59
2022/06/10 09:51:17;;;;;;;15.32;7.75;;;;;;;24.69;100.00;-24501.72;5053442;28;20182;-61
2022/06/10 09:53:51;;;;;;;15.35;7.78;;;;;;;25.04;100.00;-24511.38;5053935;28;20268;-62
2022/06/10 09:56:36;;;;;;;12.63;7.25;;;;;;;25.11;100.00;-24513.03;5050396;28;20227;-59
2022/06/10 09:59:04;;;;;;;17.48;8.40;;;;;;;25.52;100.00;-24524.44;5052514;28;20628;-59
2022/06/10 10:02:03;;;;;;;12.02;7.32;;;;;;;25.34;100.00;-24519.50;5052569;28;20581;-59
2022/06/10 10:05:05;;;;;;;13.98;7.90;;;;;;;25.29;100.00;-24517.97;5051124;28;20585;-60
2022/06/10 10:08:09;;;;;;;12.57;7.28;;;;;;;25.40;100.00;-24521.00;5052046;28;20261;-60
2022/06/10 10:10:43;;;;;;;15.40;7.85;;;;;;;25.01;100.00;-24510.56;5024934;28;20256;-61
2022/06/10 10:13:31;;;;;;;15.65;8.45;;;;;;;25.14;100.00;-24513.84;5049092;28;20182;-60
2022/06/10 10:16:15;;;;;;;16.02;8.07;;;;;;;25.27;100.00;-24517.44;5051627;28;20187;-60
2022/06/10 10:19:05;;;;;;;15.50;8.20;;;;;;;25.74;100.00;-24530.22;5053565;28;20201;-60
2022/06/10 10:22:12;;;;;;;11.55;6.55;;;;;;;26.29;100.00;-24545.22;5051914;28;20248;-60
2022/06/10 10:24:40;;;;;;;10.55;6.57;;;;;;;25.66;100.00;-24528.03;5052556;28;20198;-59
2022/06/10 10:27:15;;;;;;;11.13;6.32;;;;;;;26.35;100.00;-24547.00;5053626;28;20654;-60
2022/06/10 10:29:45;;;;;;;12.43;7.47;;;;;;;26.98;100.00;-24564.00;5052883;28;20253;-59
2022/06/10 10:32:17;;;;;;;10.05;6.22;;;;;;;27.50;100.00;-24578.00;5049351;28;20649;-60
2022/06/10 10:34:47;;;;;;;14.93;8.02;;;;;;;27.46;100.00;-24576.91;5052335;28;20599;-60
2022/06/10 10:37:39;;;;;;;11.57;7.78;;;;;;;26.90;100.00;-24561.81;5049410;28;20197;-60
2022/06/10 10:40:19;;;;;;;12.77;7.57;;;;;;;26.44;100.00;-24549.34;5046310;28;20289;-60
2022/06/10 10:42:47;;;;;;;12.63;7.90;;;;;;;26.41;100.00;-24548.50;5052103;28;20202;-60
2022/06/10 10:45:29;;;;;;;15.68;7.97;;;;;;;25.71;100.00;-24529.53;5051481;28;20171;-61
2022/06/10 10:47:58;;;;;;;12.93;7.85;;;;;;;25.99;100.00;-24536.97;5051014;28;20261;-60
2022/06/10 10:50:33;;;;;;;12.70;7.70;;;;;;;26.05;100.00;-24538.75;5052592;28;20197;-60
2022/06/10 10:53:04;;;;;;;14.15;8.55;;;;;;;26.25;100.00;-24544.13;5051445;28;20261;-60
2022/06/10 10:55:37;;;;;;;13.88;8.10;;;;;;;26.71;100.00;-24556.59;5046082;28;20186;-59
2022/06/10 10:58:35;;;;;;;14.40;8.18;;;;;;;26.65;100.00;-24555.09;5046575;28;20604;-59
2022/06/10 11:01:02;;;;;;;13.68;8.38;;;;;;;25.97;100.00;-24536.56;5045288;28;20199;-59
2022/06/10 11:03:52;;;;;;;17.35;9.15;;;;;;;25.68;100.00;-24528.56;5051749;28;20250;-59
2022/06/10 11:06:26;;;;;;;14.55;8.05;;;;;;;26.17;100.00;-24541.91;5049838;28;20175;-59
2022/06/10 11:09:01;;;;;;;13.77;7.78;;;;;;;25.48;100.00;-24523.34;5051638;28;20537;-60
2022/06/10 11:11:31;;;;;;;12.77;7.93;;;;;;;26.07;100.00;-24539.16;5051731;28;20309;-61
2022/06/10 11:14:00;;;;;;;14.95;7.82;;;;;;;25.71;100.00;-24529.41;5051019;28;20187;-60
2022/06/10 11:16:26;;;;;;;15.82;7.75;;;;;;;26.58;100.00;-24553.03;5033729;28;20538;-60
2022/06/10 11:18:56;;;;;;;12.30;8.00;;;;;;;27.22;100.00;-24570.47;5052363;28;20178;-60
2022/06/10 11:21:25;;;;;;;15.60;8.32;;;;;;;27.44;100.00;-24576.34;5052565;28;20213;-61
2022/06/10 11:23:57;;;;;;;16.70;8.55;;;;;;;27.36;100.00;-24574.31;5051947;28;20270;-60
2022/06/10 11:26:25;;;;;;;15.73;8.63;;;;;;;27.20;100.00;-24570.06;5051857;28;20179;-61
2022/06/10 11:29:00;;;;;;;15.85;8.90;;;;;;;26.91;100.00;-24562.09;5051608;28;20657;-61
2022/06/10 11:31:38;;;;;;;16.95;8.88;;;;;;;26.97;100.00;-24563.59;5052189;28;20193;-60
2022/06/10 11:34:05;;;;;;;14.05;9.00;;;;;;;26.89;100.00;-24561.41;5050455;28;20223;-60
2022/06/10 11:36:43;;;;;;;17.23;9.20;;;;;;;26.95;100.00;-24563.06;5051876;28;20210;-59
2022/06/10 11:39:33;;;;;;;16.73;9.73;;;;;;;27.14;100.00;-24568.28;5052202;28;20243;-61
2022/06/10 11:42:26;;;;;;;18.05;10.13;;;;;;;27.27;100.00;-24571.69;5050140;28;20207;-59
2022/06/10 11:45:15;;;;;;;14.88;9.30;;;;;;;27.09;100.00;-24566.91;5051138;28;20178;-60